Ophir, California
Current Conditions -  °F | °C
As of 1:35 AM on Monday 24 Nov 2014 (Local Time) from KAUN Reporting Station
Clear Clear  
Wind Chill: 38°   Ceiling: Unl
Heat Index: 41°   Visibility: 10mi
Dew Point: 36°   Wind: 5mph
Humidity: 81%   Direction: 110°ESE
Pressure: 30.32"   Gusts: NA
Location:  38.9102°N, 121.092°W
Report Text: KAUN 240935Z AUTO 11004KT 10SM CLR 05/02 A3032 RMK AO1
Loading
Personal Weather Stations






























Interactive Weather Map New forecast layout! Learn more

10-Day Weather Forecast

Advertisements
Track Severe Weather on mobile